createdAt,value
2018-09-23T00:00:22.473Z,13.80
2018-09-23T00:02:52.207Z,13.69
2018-09-23T00:05:21.963Z,13.64
2018-09-23T00:07:51.798Z,13.63
2018-09-23T00:10:21.527Z,13.51
2018-09-23T00:12:51.243Z,13.49
2018-09-23T00:15:20.970Z,13.50
2018-09-23T00:17:50.750Z,13.56
2018-09-23T00:20:20.532Z,13.51
2018-09-23T00:22:50.743Z,13.43
2018-09-23T00:25:20.474Z,13.37
2018-09-23T00:27:50.217Z,13.28
2018-09-23T00:30:19.975Z,13.23
2018-09-23T00:32:49.713Z,13.20
2018-09-23T00:35:19.516Z,13.18
2018-09-23T00:37:49.207Z,13.15
2018-09-23T00:40:18.994Z,13.11
2018-09-23T00:42:48.701Z,13.07
2018-09-23T00:45:18.430Z,13.04
2018-09-23T00:47:48.138Z,13.02
2018-09-23T00:50:17.813Z,12.98
2018-09-23T00:52:47.202Z,12.97
2018-09-23T00:55:16.618Z,12.96
2018-09-23T00:57:46.332Z,12.98
2018-09-23T01:00:16.158Z,13.08
2018-09-23T01:02:45.970Z,13.09
2018-09-23T01:05:15.674Z,13.09
2018-09-23T01:07:45.353Z,13.18
2018-09-23T01:10:15.122Z,13.13
2018-09-23T01:12:44.469Z,13.07
2018-09-23T01:15:14.217Z,13.06
2018-09-23T01:17:43.914Z,13.08
2018-09-23T01:20:13.708Z,13.08
2018-09-23T01:22:43.348Z,13.09
2018-09-23T01:25:13.137Z,13.08
2018-09-23T01:27:42.888Z,13.11
2018-09-23T01:30:12.617Z,13.12
2018-09-23T01:32:42.303Z,13.14
2018-09-23T01:35:12.045Z,13.15
2018-09-23T01:37:41.794Z,13.14
2018-09-23T01:40:11.492Z,13.14
2018-09-23T01:42:41.181Z,13.16
2018-09-23T01:45:10.884Z,13.12
2018-09-23T01:47:40.625Z,13.12
2018-09-23T01:50:10.365Z,13.11
2018-09-23T01:52:40.275Z,13.05
2018-09-23T01:55:10.060Z,13.01
2018-09-23T01:57:39.755Z,13.01
2018-09-23T02:00:09.589Z,13.04
2018-09-23T02:02:39.294Z,13.05
2018-09-23T02:05:09.253Z,13.08
2018-09-23T02:07:39.005Z,13.08
2018-09-23T02:10:08.733Z,13.08
2018-09-23T02:12:38.105Z,13.12
2018-09-23T02:15:07.970Z,13.12
2018-09-23T02:17:37.677Z,13.10
2018-09-23T02:20:07.581Z,13.08
2018-09-23T02:22:37.298Z,13.11
2018-09-23T02:25:07.166Z,13.07
2018-09-23T02:27:36.960Z,13.07
2018-09-23T02:30:06.860Z,13.08
2018-09-23T02:32:36.684Z,13.07
2018-09-23T02:35:06.653Z,13.07
2018-09-23T02:37:36.333Z,13.08
2018-09-23T02:40:06.591Z,13.15
2018-09-23T02:42:36.325Z,13.05
2018-09-23T02:45:06.731Z,13.06
2018-09-23T02:47:36.837Z,13.04
2018-09-23T02:50:06.729Z,13.03
2018-09-23T02:52:36.543Z,13.01
2018-09-23T02:55:06.449Z,12.89
2018-09-23T02:57:36.437Z,12.88
2018-09-23T03:00:07.183Z,12.83
2018-09-23T03:02:36.884Z,12.83
2018-09-23T03:05:06.719Z,12.85
2018-09-23T03:07:36.566Z,12.83
2018-09-23T03:10:06.837Z,12.81
2018-09-23T03:12:36.517Z,12.81
2018-09-23T03:15:06.409Z,12.76
2018-09-23T03:17:36.075Z,12.69
2018-09-23T03:20:05.977Z,12.65
2018-09-23T03:22:35.625Z,12.62
2018-09-23T03:25:05.016Z,12.60
2018-09-23T03:27:34.698Z,12.59
2018-09-23T03:30:04.591Z,12.58
2018-09-23T03:32:34.262Z,12.59
2018-09-23T03:35:03.985Z,12.61
2018-09-23T03:37:33.629Z,12.59
2018-09-23T03:40:03.364Z,12.59
2018-09-23T03:42:32.759Z,12.60
2018-09-23T03:45:02.622Z,12.61
2018-09-23T03:47:32.300Z,12.60
2018-09-23T03:50:02.069Z,12.61
2018-09-23T03:52:31.916Z,12.60
2018-09-23T03:55:01.765Z,12.60
2018-09-23T03:57:31.560Z,12.59
2018-09-23T04:00:01.252Z,12.60
2018-09-23T04:02:30.956Z,12.61
2018-09-23T04:05:00.651Z,12.60
2018-09-23T04:07:30.404Z,12.57
2018-09-23T04:09:59.728Z,12.56
2018-09-23T04:12:29.504Z,12.58
2018-09-23T04:14:59.236Z,12.57
2018-09-23T04:17:28.949Z,12.57
2018-09-23T04:19:58.652Z,12.57
2018-09-23T04:22:28.044Z,12.58
2018-09-23T04:24:57.952Z,12.54
2018-09-23T04:27:28.909Z,12.54
2018-09-23T04:29:58.679Z,12.53
2018-09-23T04:32:28.370Z,12.51
2018-09-23T04:34:58.086Z,12.51
2018-09-23T04:37:27.844Z,12.52
2018-09-23T04:39:57.709Z,12.53
2018-09-23T04:42:27.429Z,12.53
2018-09-23T04:44:57.341Z,12.55
2018-09-23T04:47:27.056Z,12.61
2018-09-23T04:49:56.721Z,12.69
2018-09-23T04:52:26.446Z,12.59
2018-09-23T04:54:57.392Z,12.59
2018-09-23T04:57:27.212Z,12.62
2018-09-23T04:59:56.952Z,12.60
2018-09-23T05:02:27.236Z,12.65
2018-09-23T05:04:56.976Z,12.68
2018-09-23T05:07:26.769Z,12.67
2018-09-23T05:09:56.735Z,12.71
2018-09-23T05:12:26.752Z,12.75
2018-09-23T05:14:56.576Z,12.73
2018-09-23T05:17:26.352Z,12.79
2018-09-23T05:19:56.215Z,12.89
2018-09-23T05:22:25.665Z,12.85
2018-09-23T05:24:55.367Z,12.95
2018-09-23T05:27:25.380Z,13.01
2018-09-23T05:29:55.067Z,13.00
2018-09-23T05:32:24.859Z,13.06
2018-09-23T05:34:54.212Z,13.05
2018-09-23T05:37:23.627Z,13.18
2018-09-23T05:39:53.404Z,13.29
2018-09-23T05:42:22.856Z,13.29
2018-09-23T05:44:52.643Z,13.29
2018-09-23T05:47:22.400Z,13.44
2018-09-23T05:49:52.229Z,13.49
2018-09-23T05:52:22.000Z,13.52
2018-09-23T05:54:51.375Z,13.66
2018-09-23T05:57:21.151Z,13.77
2018-09-23T05:59:51.443Z,13.75
2018-09-23T06:02:21.565Z,13.79
2018-09-23T06:04:52.092Z,13.82
2018-09-23T06:07:22.166Z,13.91
2018-09-23T06:09:52.020Z,13.95
2018-09-23T06:12:22.160Z,14.00
2018-09-23T06:14:52.329Z,14.13
2018-09-23T06:17:22.601Z,14.45
2018-09-23T06:19:52.719Z,14.51
2018-09-23T06:22:22.576Z,14.56
2018-09-23T06:24:52.620Z,14.63
2018-09-23T06:27:22.097Z,14.66
2018-09-23T06:29:51.954Z,14.77
2018-09-23T06:32:21.973Z,14.81
2018-09-23T06:34:51.781Z,14.95
2018-09-23T06:37:21.676Z,15.02
2018-09-23T06:39:51.572Z,14.97
2018-09-23T06:42:21.442Z,14.91
2018-09-23T06:44:51.605Z,14.90
2018-09-23T06:47:21.059Z,15.12
2018-09-23T06:49:50.612Z,15.35
2018-09-23T06:52:20.505Z,15.64
2018-09-23T06:54:50.391Z,15.56
2018-09-23T06:57:20.264Z,15.56
2018-09-23T06:59:50.127Z,15.35
2018-09-23T07:02:19.999Z,15.34
2018-09-23T07:04:49.726Z,15.29
2018-09-23T07:07:19.767Z,15.32
2018-09-23T07:09:49.725Z,15.27
2018-09-23T07:12:19.176Z,15.59
2018-09-23T07:14:48.992Z,15.65
2018-09-23T07:17:19.015Z,15.53
2018-09-23T07:19:48.751Z,15.39
2018-09-23T07:22:18.567Z,15.35
2018-09-23T07:24:48.381Z,15.33
2018-09-23T07:27:18.176Z,15.33
2018-09-23T07:29:48.580Z,15.29
2018-09-23T07:32:18.419Z,15.46
2018-09-23T07:34:48.380Z,15.60
2018-09-23T07:37:19.183Z,15.87
2018-09-23T07:39:49.187Z,15.66
2018-09-23T07:42:19.080Z,15.99
2018-09-23T07:44:55.579Z,16.36
2018-09-23T07:47:35.099Z,16.65
2018-09-23T07:50:06.267Z,16.46
2018-09-23T07:52:35.814Z,16.38
2018-09-23T07:55:05.819Z,16.28
2018-09-23T07:57:35.707Z,16.44
2018-09-23T08:00:05.554Z,16.75
2018-09-23T08:02:35.482Z,17.01
2018-09-23T08:05:05.092Z,16.97
2018-09-23T08:07:35.159Z,16.79
2018-09-23T08:10:05.166Z,16.75
2018-09-23T08:12:34.997Z,16.73
2018-09-23T08:15:04.999Z,16.79
2018-09-23T08:17:34.924Z,16.92
2018-09-23T08:20:05.045Z,16.79
2018-09-23T08:22:34.818Z,16.56
2018-09-23T08:25:04.928Z,16.70
2018-09-23T08:27:34.715Z,17.12
2018-09-23T08:30:04.601Z,17.15
2018-09-23T08:32:34.432Z,16.86
2018-09-23T08:35:04.214Z,16.57
2018-09-23T08:37:34.039Z,16.50
2018-09-23T08:40:03.943Z,16.38
2018-09-23T08:42:35.191Z,16.45
2018-09-23T08:45:05.497Z,16.71
2018-09-23T08:47:35.350Z,17.32
2018-09-23T08:50:05.232Z,17.55
2018-09-23T08:52:35.112Z,17.66
2018-09-23T08:55:05.065Z,17.76
2018-09-23T08:57:35.079Z,17.69
2018-09-23T09:00:05.417Z,17.43
2018-09-23T09:02:35.695Z,17.44
2018-09-23T09:05:05.648Z,17.47
2018-09-23T09:07:35.841Z,17.52
2018-09-23T09:10:05.679Z,17.53
2018-09-23T09:12:35.466Z,17.27
2018-09-23T09:15:05.467Z,16.86
2018-09-23T09:17:35.389Z,16.57
2018-09-23T09:20:05.152Z,16.61
2018-09-23T09:22:35.100Z,16.80
2018-09-23T09:25:04.906Z,17.07
2018-09-23T09:27:34.578Z,17.30
2018-09-23T09:30:04.555Z,17.44
2018-09-23T09:32:34.310Z,17.50
2018-09-23T09:35:03.997Z,17.48
2018-09-23T09:37:33.772Z,17.71
2018-09-23T09:40:03.500Z,17.90
2018-09-23T09:42:33.295Z,18.01
2018-09-23T09:45:03.072Z,18.21
2018-09-23T09:47:32.878Z,18.42
2018-09-23T09:50:02.592Z,18.60
2018-09-23T09:52:31.995Z,18.74
2018-09-23T09:55:01.774Z,18.76
2018-09-23T09:57:31.614Z,18.64
2018-09-23T10:00:01.357Z,18.49
2018-09-23T10:02:31.099Z,18.51
2018-09-23T10:05:00.974Z,18.81
2018-09-23T10:07:30.795Z,18.87
2018-09-23T10:10:00.674Z,18.93
2018-09-23T10:12:30.482Z,18.85
2018-09-23T10:15:00.279Z,18.61
2018-09-23T10:17:30.210Z,18.35
2018-09-23T10:19:59.991Z,18.14
2018-09-23T10:22:29.830Z,17.97
2018-09-23T10:24:59.614Z,18.00
2018-09-23T10:27:29.392Z,17.93
2018-09-23T10:29:59.214Z,18.10
2018-09-23T10:32:29.009Z,18.36
2018-09-23T10:34:58.794Z,18.32
2018-09-23T10:37:29.206Z,18.64
2018-09-23T10:39:59.179Z,18.55
2018-09-23T10:42:29.610Z,18.38
2018-09-23T10:45:00.326Z,18.26
2018-09-23T10:47:30.220Z,18.25
2018-09-23T10:50:11.642Z,18.53
2018-09-23T10:52:42.099Z,18.66
2018-09-23T10:55:25.501Z,19.20
2018-09-23T10:58:05.317Z,19.50
2018-09-23T11:00:35.130Z,19.82
2018-09-23T11:03:05.068Z,19.77
2018-09-23T11:05:34.870Z,19.64
2018-09-23T11:08:04.801Z,19.66
2018-09-23T11:10:34.705Z,19.95
2018-09-23T11:13:04.627Z,20.11
2018-09-23T11:15:34.445Z,20.48
2018-09-23T11:18:04.429Z,21.08
2018-09-23T11:20:34.298Z,21.33
2018-09-23T11:23:04.053Z,21.30
2018-09-23T11:25:34.903Z,20.66
2018-09-23T11:28:05.616Z,20.75
2018-09-23T11:30:35.420Z,20.72
2018-09-23T11:33:05.337Z,20.80
2018-09-23T11:35:35.101Z,20.82
2018-09-23T11:38:04.973Z,20.61
2018-09-23T11:40:34.891Z,20.83
2018-09-23T11:43:04.769Z,20.59
2018-09-23T11:45:35.253Z,20.66
2018-09-23T11:48:05.028Z,20.75
2018-09-23T11:50:34.787Z,20.87
2018-09-23T11:53:04.679Z,20.81
2018-09-23T11:55:34.390Z,20.60
2018-09-23T11:58:04.137Z,20.07
2018-09-23T12:00:33.910Z,19.84
2018-09-23T12:03:03.749Z,19.66
2018-09-23T12:05:34.812Z,19.13
2018-09-23T12:08:05.119Z,19.30
2018-09-23T12:10:35.606Z,19.43
2018-09-23T12:13:06.511Z,19.43
2018-09-23T12:15:36.407Z,19.09
2018-09-23T12:18:07.650Z,19.00
2018-09-23T12:20:37.740Z,18.38
2018-09-23T12:23:07.713Z,18.02
2018-09-23T12:25:38.232Z,16.97
2018-09-23T12:28:08.406Z,17.54
2018-09-23T12:30:38.237Z,17.61
2018-09-23T12:33:11.506Z,17.37
2018-09-23T12:35:41.521Z,17.10
2018-09-23T12:38:11.281Z,17.24
2018-09-23T12:40:41.305Z,17.54
2018-09-23T12:43:10.876Z,17.51
2018-09-23T12:45:40.993Z,17.46
2018-09-23T12:48:10.988Z,17.27
2018-09-23T12:50:40.533Z,16.97
2018-09-23T12:53:10.563Z,16.56
2018-09-23T12:55:40.745Z,16.60
2018-09-23T12:58:10.424Z,16.66
2018-09-23T13:00:40.953Z,16.67
2018-09-23T13:03:10.942Z,16.56
2018-09-23T13:05:40.913Z,16.32
2018-09-23T13:08:11.685Z,15.90
2018-09-23T13:10:41.939Z,15.88
2018-09-23T13:13:12.408Z,15.94
2018-09-23T13:15:47.389Z,15.93
2018-09-23T13:18:16.839Z,16.02
2018-09-23T13:20:46.731Z,16.21
2018-09-23T13:23:16.169Z,15.60
2018-09-23T13:25:45.991Z,15.27
2018-09-23T13:28:15.913Z,15.12
2018-09-23T13:30:45.701Z,14.80
2018-09-23T13:33:15.133Z,14.76
2018-09-23T13:35:44.975Z,14.75
2018-09-23T13:38:14.374Z,14.96
2018-09-23T13:40:43.861Z,14.76
2018-09-23T13:43:13.688Z,14.87
2018-09-23T13:45:43.424Z,14.98
2018-09-23T13:48:13.229Z,14.96
2018-09-23T13:50:42.992Z,14.79
2018-09-23T13:53:12.864Z,14.38
2018-09-23T13:55:42.232Z,13.55
2018-09-23T13:58:11.668Z,13.36
2018-09-23T14:00:41.100Z,13.30
2018-09-23T14:03:10.520Z,13.04
2018-09-23T14:05:40.762Z,13.05
2018-09-23T14:08:10.684Z,13.12
2018-09-23T14:10:41.265Z,13.04
2018-09-23T14:13:10.796Z,12.62
2018-09-23T14:15:40.935Z,12.37
2018-09-23T14:18:11.087Z,12.18
2018-09-23T14:20:43.237Z,12.22
2018-09-23T14:23:12.708Z,12.31
2018-09-23T14:25:42.671Z,12.21
2018-09-23T14:28:13.618Z,12.18
2018-09-23T14:30:43.268Z,12.44
2018-09-23T14:33:12.754Z,12.35
2018-09-23T14:35:42.267Z,12.25
2018-09-23T14:38:12.211Z,12.16
2018-09-23T14:40:42.010Z,12.09
2018-09-23T14:43:11.876Z,12.02
2018-09-23T14:45:41.471Z,12.16
2018-09-23T14:48:11.500Z,12.17
2018-09-23T14:50:40.913Z,12.06
2018-09-23T14:53:10.449Z,12.05
2018-09-23T14:55:39.924Z,11.96
2018-09-23T14:58:09.892Z,11.99
2018-09-23T15:00:39.608Z,11.96
2018-09-23T15:03:09.448Z,11.97
2018-09-23T15:05:38.952Z,11.93
2018-09-23T15:08:09.409Z,11.93
2018-09-23T15:10:39.232Z,11.87
2018-09-23T15:13:10.064Z,11.88
2018-09-23T15:15:39.887Z,11.85
2018-09-23T15:18:10.029Z,12.01
2018-09-23T15:20:39.918Z,11.82
2018-09-23T15:23:09.363Z,11.87
2018-09-23T15:25:39.309Z,11.82
2018-09-23T15:28:09.430Z,11.75
2018-09-23T15:30:40.622Z,11.75
2018-09-23T15:33:11.749Z,11.77
2018-09-23T15:35:41.708Z,11.90
2018-09-23T15:38:11.535Z,12.03
2018-09-23T15:40:41.367Z,11.82
2018-09-23T15:43:12.011Z,11.80
2018-09-23T15:45:42.029Z,11.71
2018-09-23T15:48:12.880Z,11.80
2018-09-23T15:50:43.460Z,11.77
2018-09-23T15:53:13.575Z,11.74
2018-09-23T15:55:43.282Z,11.75
2018-09-23T15:58:12.824Z,11.83
2018-09-23T16:00:42.766Z,11.72
2018-09-23T16:03:12.447Z,11.70
2018-09-23T16:05:42.907Z,11.73
2018-09-23T16:08:19.268Z,11.68
2018-09-23T16:10:48.896Z,11.71
2018-09-23T16:13:18.488Z,11.66
2018-09-23T16:15:48.198Z,11.57
2018-09-23T16:18:17.723Z,11.60
2018-09-23T16:20:48.548Z,11.48
2018-09-23T16:23:18.606Z,11.50
2018-09-23T16:25:48.985Z,11.55
2018-09-23T16:28:19.309Z,11.48
2018-09-23T16:30:49.391Z,11.45
2018-09-23T16:33:19.506Z,11.47
2018-09-23T16:35:50.047Z,11.42
2018-09-23T16:38:19.746Z,11.35
2018-09-23T16:40:49.886Z,11.33
2018-09-23T16:43:19.835Z,11.33
2018-09-23T16:45:51.054Z,11.37
2018-09-23T16:48:21.307Z,11.36
2018-09-23T16:50:52.897Z,11.30
2018-09-23T16:53:23.058Z,11.27
2018-09-23T16:55:52.912Z,11.25
2018-09-23T16:58:22.608Z,11.25
2018-09-23T17:00:53.496Z,11.22
2018-09-23T17:03:23.023Z,11.20
2018-09-23T17:05:52.470Z,11.21
2018-09-23T17:08:23.161Z,11.23
2018-09-23T17:10:53.017Z,11.18
2018-09-23T17:13:22.518Z,11.26
2018-09-23T17:15:52.507Z,11.21
2018-09-23T17:18:22.060Z,11.18
2018-09-23T17:20:51.791Z,11.17
2018-09-23T17:23:21.641Z,11.15
2018-09-23T17:25:51.634Z,11.14
2018-09-23T17:28:21.895Z,11.15
2018-09-23T17:30:51.602Z,11.17
2018-09-23T17:33:21.606Z,11.20
2018-09-23T17:35:52.386Z,11.18
2018-09-23T17:38:23.027Z,11.18
2018-09-23T17:40:53.522Z,11.13
2018-09-23T17:43:23.123Z,11.09
2018-09-23T17:45:53.919Z,11.10
2018-09-23T17:48:23.605Z,11.08
2018-09-23T17:50:53.146Z,11.06
2018-09-23T17:53:23.602Z,11.08
2018-09-23T17:55:53.592Z,11.07
2018-09-23T17:58:23.632Z,11.08
2018-09-23T18:00:53.538Z,11.07
2018-09-23T18:03:23.577Z,11.05
2018-09-23T18:05:53.574Z,11.19
2018-09-23T18:08:23.693Z,11.18
2018-09-23T18:10:53.274Z,11.26
2018-09-23T18:13:23.135Z,11.38
2018-09-23T18:15:53.087Z,11.46
2018-09-23T18:18:23.030Z,11.41
2018-09-23T18:20:52.453Z,11.32
2018-09-23T18:23:22.026Z,11.55
2018-09-23T18:25:51.900Z,11.40
2018-09-23T18:28:21.338Z,11.35
2018-09-23T18:30:50.933Z,11.40
2018-09-23T18:33:20.844Z,11.30
2018-09-23T18:35:50.638Z,11.29
2018-09-23T18:38:20.484Z,11.22
2018-09-23T18:40:50.514Z,11.16
2018-09-23T18:43:19.921Z,11.01
2018-09-23T18:45:49.771Z,11.00
2018-09-23T18:48:19.606Z,10.86
2018-09-23T18:50:49.422Z,10.78
2018-09-23T18:53:24.024Z,10.78
2018-09-23T18:55:54.102Z,10.71
2018-09-23T18:58:23.964Z,10.66
2018-09-23T19:00:53.741Z,10.51
2018-09-23T19:03:23.838Z,10.24
2018-09-23T19:05:53.595Z,10.09
2018-09-23T19:08:23.633Z,10.12
2018-09-23T19:10:53.505Z,10.26
2018-09-23T19:13:28.003Z,10.02
2018-09-23T19:16:02.564Z,9.88
2018-09-23T19:18:32.379Z,9.78
2018-09-23T19:21:01.941Z,9.54
2018-09-23T19:23:31.665Z,9.34
2018-09-23T19:26:01.407Z,9.40
2018-09-23T19:28:30.834Z,9.39
2018-09-23T19:31:00.729Z,9.49
2018-09-23T19:33:30.530Z,9.47
2018-09-23T19:35:59.923Z,9.49
2018-09-23T19:38:29.474Z,9.37
2018-09-23T19:40:58.896Z,9.46
2018-09-23T19:43:28.370Z,9.51
2018-09-23T19:45:57.723Z,9.37
2018-09-23T19:48:27.252Z,9.45
2018-09-23T19:50:57.578Z,9.42
2018-09-23T19:53:27.404Z,9.43
2018-09-23T19:55:57.201Z,9.46
2018-09-23T19:58:26.740Z,9.39
2018-09-23T20:00:56.185Z,9.40
2018-09-23T20:03:27.827Z,9.35
2018-09-23T20:05:58.897Z,9.32
2018-09-23T20:08:28.514Z,9.41
2018-09-23T20:10:58.022Z,9.31
2018-09-23T20:13:27.878Z,9.44
2018-09-23T20:15:57.371Z,9.37
2018-09-23T20:18:26.870Z,9.36
2018-09-23T20:20:56.771Z,9.27
2018-09-23T20:23:26.975Z,9.29
2018-09-23T20:25:57.045Z,9.25
2018-09-23T20:28:26.996Z,9.22
2018-09-23T20:30:56.937Z,9.21
2018-09-23T20:33:26.545Z,9.13
2018-09-23T20:35:56.589Z,9.09
2018-09-23T20:38:26.630Z,9.07
2018-09-23T20:40:56.462Z,9.05
2018-09-23T20:43:30.431Z,9.09
2018-09-23T20:45:59.876Z,8.97
2018-09-23T20:48:29.824Z,8.93
2018-09-23T20:50:59.451Z,8.85
2018-09-23T20:53:29.343Z,8.77
2018-09-23T20:55:59.255Z,8.71
2018-09-23T20:58:29.158Z,8.59
2018-09-23T21:01:00.052Z,8.57
2018-09-23T21:03:29.957Z,8.43
2018-09-23T21:05:59.956Z,8.42
2018-09-23T21:08:30.262Z,8.49
2018-09-23T21:11:00.008Z,8.49
2018-09-23T21:13:29.805Z,8.49
2018-09-23T21:15:59.297Z,8.43
2018-09-23T21:18:29.132Z,8.44
2018-09-23T21:20:58.932Z,8.43
2018-09-23T21:23:28.735Z,8.52
2018-09-23T21:25:58.454Z,8.57
2018-09-23T21:28:27.892Z,8.62
2018-09-23T21:30:57.719Z,8.59
2018-09-23T21:33:27.550Z,8.66
2018-09-23T21:35:57.358Z,8.74
2018-09-23T21:38:26.748Z,8.65
2018-09-23T21:40:56.524Z,8.69
2018-09-23T21:43:26.372Z,8.69
2018-09-23T21:45:56.073Z,8.71
2018-09-23T21:48:25.817Z,8.72
2018-09-23T21:50:55.561Z,8.75
2018-09-23T21:53:25.272Z,8.66
2018-09-23T21:55:54.680Z,8.66
2018-09-23T21:58:24.390Z,8.65
2018-09-23T22:00:54.154Z,8.60
2018-09-23T22:03:23.909Z,8.59
2018-09-23T22:05:53.341Z,8.61
2018-09-23T22:08:22.698Z,8.66
2018-09-23T22:10:52.473Z,8.61
2018-09-23T22:13:22.158Z,8.59
2018-09-23T22:15:51.886Z,8.56
2018-09-23T22:18:21.566Z,8.52
2018-09-23T22:20:51.283Z,8.56
2018-09-23T22:23:21.012Z,8.52
2018-09-23T22:25:50.724Z,8.54
2018-09-23T22:28:20.464Z,8.59
2018-09-23T22:30:50.141Z,8.60
2018-09-23T22:33:19.853Z,8.59
2018-09-23T22:35:49.552Z,8.68
2018-09-23T22:38:19.250Z,8.65
2018-09-23T22:40:48.950Z,8.66
2018-09-23T22:43:18.672Z,8.66
2018-09-23T22:45:48.344Z,8.69
2018-09-23T22:48:17.733Z,8.74
2018-09-23T22:50:47.452Z,8.72
2018-09-23T22:53:17.181Z,8.71
2018-09-23T22:55:46.876Z,8.70
2018-09-23T22:58:16.625Z,8.67
2018-09-23T23:00:46.348Z,8.69
2018-09-23T23:03:16.103Z,8.65
2018-09-23T23:05:45.793Z,8.58
2018-09-23T23:08:15.531Z,8.67
2018-09-23T23:10:45.456Z,8.64
2018-09-23T23:13:15.231Z,8.65
2018-09-23T23:15:44.993Z,8.68
2018-09-23T23:18:14.717Z,8.65
2018-09-23T23:20:44.467Z,8.68
2018-09-23T23:23:14.209Z,8.67
2018-09-23T23:25:43.955Z,8.70
2018-09-23T23:28:13.695Z,8.71
2018-09-23T23:30:43.473Z,8.76
2018-09-23T23:33:13.275Z,8.77
2018-09-23T23:35:43.109Z,8.75
2018-09-23T23:38:12.859Z,8.78
2018-09-23T23:40:42.651Z,8.84
2018-09-23T23:43:12.418Z,8.88
2018-09-23T23:45:42.133Z,8.94
2018-09-23T23:48:11.886Z,8.95
2018-09-23T23:50:41.587Z,8.98
2018-09-23T23:53:11.367Z,9.01
2018-09-23T23:55:41.059Z,9.04
2018-09-23T23:58:10.831Z,9.01
